sensor_id;sensor_type;location;lat;lon;timestamp;temperature;humidity
12688;DHT22;6408;59.388;17.798;2023-07-31T00:27:45;15.20;99.90
12688;DHT22;6408;59.388;17.798;2023-07-31T00:30:49;15.10;99.90
12688;DHT22;6408;59.388;17.798;2023-07-31T00:38:00;15.00;99.90
12688;DHT22;6408;59.388;17.798;2023-07-31T00:55:16;15.00;99.90
12688;DHT22;6408;59.388;17.798;2023-07-31T01:02:23;15.00;99.90
12688;DHT22;6408;59.388;17.798;2023-07-31T01:22:08;14.90;99.90
12688;DHT22;6408;59.388;17.798;2023-07-31T01:28:28;14.90;99.90
12688;DHT22;6408;59.388;17.798;2023-07-31T01:44:53;15.00;99.90
12688;DHT22;6408;59.388;17.798;2023-07-31T01:50:39;15.00;99.90
12688;DHT22;6408;59.388;17.798;2023-07-31T01:53:52;15.00;99.90
12688;DHT22;6408;59.388;17.798;2023-07-31T02:07:57;15.00;99.90
12688;DHT22;6408;59.388;17.798;2023-07-31T02:13:32;15.00;99.90
12688;DHT22;6408;59.388;17.798;2023-07-31T02:16:08;14.90;99.90
12688;DHT22;6408;59.388;17.798;2023-07-31T02:18:53;15.00;99.90
12688;DHT22;6408;59.388;17.798;2023-07-31T02:21:44;15.00;99.90
12688;DHT22;6408;59.388;17.798;2023-07-31T02:27:52;15.00;99.90
12688;DHT22;6408;59.388;17.798;2023-07-31T02:30:44;15.00;99.90
12688;DHT22;6408;59.388;17.798;2023-07-31T02:33:31;15.00;99.90
12688;DHT22;6408;59.388;17.798;2023-07-31T02:39:31;14.90;99.90
12688;DHT22;6408;59.388;17.798;2023-07-31T02:43:07;14.90;99.90
12688;DHT22;6408;59.388;17.798;2023-07-31T02:58:42;15.10;99.90
12688;DHT22;6408;59.388;17.798;2023-07-31T03:56:48;15.50;99.90
12688;DHT22;6408;59.388;17.798;2023-07-31T04:23:27;15.50;99.90
12688;DHT22;6408;59.388;17.798;2023-07-31T04:30:06;15.60;99.90
12688;DHT22;6408;59.388;17.798;2023-07-31T04:50:10;16.30;99.90
12688;DHT22;6408;59.388;17.798;2023-07-31T04:59:47;16.40;99.90
12688;DHT22;6408;59.388;17.798;2023-07-31T05:16:13;16.50;99.90
12688;DHT22;6408;59.388;17.798;2023-07-31T05:19:20;16.50;99.90
12688;DHT22;6408;59.388;17.798;2023-07-31T05:24:59;16.60;99.90
12688;DHT22;6408;59.388;17.798;2023-07-31T05:27:36;16.60;99.90
12688;DHT22;6408;59.388;17.798;2023-07-31T05:30:10;16.70;99.90
12688;DHT22;6408;59.388;17.798;2023-07-31T05:33:02;16.80;99.90
12688;DHT22;6408;59.388;17.798;2023-07-31T05:36:02;16.90;99.90
12688;DHT22;6408;59.388;17.798;2023-07-31T05:38:44;16.90;99.90
12688;DHT22;6408;59.388;17.798;2023-07-31T05:41:19;16.80;99.90
12688;DHT22;6408;59.388;17.798;2023-07-31T05:43:47;16.80;99.90
12688;DHT22;6408;59.388;17.798;2023-07-31T05:46:18;16.80;99.90
12688;DHT22;6408;59.388;17.798;2023-07-31T05:48:54;16.80;99.90
12688;DHT22;6408;59.388;17.798;2023-07-31T05:51:32;16.80;99.90
12688;DHT22;6408;59.388;17.798;2023-07-31T05:54:01;16.70;99.90
12688;DHT22;6408;59.388;17.798;2023-07-31T05:56:34;16.70;99.90
12688;DHT22;6408;59.388;17.798;2023-07-31T05:59:27;16.70;99.90
12688;DHT22;6408;59.388;17.798;2023-07-31T06:02:32;16.70;99.90
12688;DHT22;6408;59.388;17.798;2023-07-31T06:05:36;16.70;99.90
12688;DHT22;6408;59.388;17.798;2023-07-31T06:49:05;17.20;99.90
12688;DHT22;6408;59.388;17.798;2023-07-31T06:51:33;17.20;99.90
12688;DHT22;6408;59.388;17.798;2023-07-31T07:00:42;17.20;99.90
12688;DHT22;6408;59.388;17.798;2023-07-31T07:03:31;17.00;99.90
12688;DHT22;6408;59.388;17.798;2023-07-31T07:06:41;16.90;99.90
12688;DHT22;6408;59.388;17.798;2023-07-31T07:09:26;16.80;99.90
12688;DHT22;6408;59.388;17.798;2023-07-31T07:11:53;16.80;99.90
12688;DHT22;6408;59.388;17.798;2023-07-31T07:14:21;16.80;99.90
12688;DHT22;6408;59.388;17.798;2023-07-31T07:17:13;16.70;99.90
12688;DHT22;6408;59.388;17.798;2023-07-31T07:20:01;16.70;99.90
12688;DHT22;6408;59.388;17.798;2023-07-31T07:22:33;16.60;99.90
12688;DHT22;6408;59.388;17.798;2023-07-31T07:25:05;16.60;99.90
12688;DHT22;6408;59.388;17.798;2023-07-31T07:27:40;16.50;99.90
12688;DHT22;6408;59.388;17.798;2023-07-31T07:30:10;16.50;99.90
12688;DHT22;6408;59.388;17.798;2023-07-31T07:33:01;16.40;99.90
12688;DHT22;6408;59.388;17.798;2023-07-31T07:35:47;16.40;99.90
12688;DHT22;6408;59.388;17.798;2023-07-31T07:38:17;16.30;99.90
12688;DHT22;6408;59.388;17.798;2023-07-31T07:44:37;16.20;99.90
12688;DHT22;6408;59.388;17.798;2023-07-31T08:40:56;15.60;99.90
12688;DHT22;6408;59.388;17.798;2023-07-31T08:44:09;15.60;99.90
12688;DHT22;6408;59.388;17.798;2023-07-31T08:47:07;15.60;99.90
12688;DHT22;6408;59.388;17.798;2023-07-31T09:00:43;15.90;99.90
12688;DHT22;6408;59.388;17.798;2023-07-31T09:03:56;16.00;99.90
12688;DHT22;6408;59.388;17.798;2023-07-31T09:06:54;16.20;99.90
12688;DHT22;6408;59.388;17.798;2023-07-31T09:09:51;16.40;99.90
12688;DHT22;6408;59.388;17.798;2023-07-31T09:12:36;16.80;99.90
12688;DHT22;6408;59.388;17.798;2023-07-31T09:15:20;17.20;99.90
12688;DHT22;6408;59.388;17.798;2023-07-31T09:18:13;17.50;99.90
12688;DHT22;6408;59.388;17.798;2023-07-31T09:21:00;17.90;99.90
12688;DHT22;6408;59.388;17.798;2023-07-31T09:23:41;18.00;99.90
12688;DHT22;6408;59.388;17.798;2023-07-31T09:26:30;18.10;99.90
12688;DHT22;6408;59.388;17.798;2023-07-31T09:29:24;18.00;99.90
12688;DHT22;6408;59.388;17.798;2023-07-31T09:31:58;18.10;99.90
12688;DHT22;6408;59.388;17.798;2023-07-31T09:34:37;18.10;99.90
12688;DHT22;6408;59.388;17.798;2023-07-31T09:37:06;18.20;99.90
12688;DHT22;6408;59.388;17.798;2023-07-31T09:39:45;18.20;99.90
12688;DHT22;6408;59.388;17.798;2023-07-31T09:42:30;18.30;99.90
12688;DHT22;6408;59.388;17.798;2023-07-31T09:45:07;18.40;99.90
12688;DHT22;6408;59.388;17.798;2023-07-31T09:47:52;18.60;99.90
12688;DHT22;6408;59.388;17.798;2023-07-31T09:50:24;18.80;99.90
12688;DHT22;6408;59.388;17.798;2023-07-31T09:52:52;19.10;99.90
12688;DHT22;6408;59.388;17.798;2023-07-31T09:55:19;19.40;99.90
12688;DHT22;6408;59.388;17.798;2023-07-31T09:57:49;19.40;99.90
12688;DHT22;6408;59.388;17.798;2023-07-31T10:00:17;19.40;99.90
12688;DHT22;6408;59.388;17.798;2023-07-31T10:02:47;19.40;99.90
12688;DHT22;6408;59.388;17.798;2023-07-31T10:05:15;19.30;99.90
12688;DHT22;6408;59.388;17.798;2023-07-31T10:07:51;19.30;99.90
12688;DHT22;6408;59.388;17.798;2023-07-31T10:10:20;19.20;99.90
12688;DHT22;6408;59.388;17.798;2023-07-31T10:12:48;19.20;99.90
12688;DHT22;6408;59.388;17.798;2023-07-31T10:15:16;19.20;99.90
12688;DHT22;6408;59.388;17.798;2023-07-31T10:17:44;19.30;99.90
12688;DHT22;6408;59.388;17.798;2023-07-31T10:20:14;19.40;99.90
12688;DHT22;6408;59.388;17.798;2023-07-31T10:22:44;19.60;99.90
12688;DHT22;6408;59.388;17.798;2023-07-31T10:25:12;19.70;99.90
12688;DHT22;6408;59.388;17.798;2023-07-31T10:27:39;19.70;99.90
12688;DHT22;6408;59.388;17.798;2023-07-31T10:30:14;19.60;99.90
12688;DHT22;6408;59.388;17.798;2023-07-31T10:32:43;19.50;99.90
12688;DHT22;6408;59.388;17.798;2023-07-31T10:35:11;19.50;99.90
12688;DHT22;6408;59.388;17.798;2023-07-31T10:37:40;19.50;99.90
12688;DHT22;6408;59.388;17.798;2023-07-31T10:40:13;19.30;99.90
12688;DHT22;6408;59.388;17.798;2023-07-31T10:42:47;19.30;99.90
12688;DHT22;6408;59.388;17.798;2023-07-31T10:45:24;19.30;99.90
12688;DHT22;6408;59.388;17.798;2023-07-31T10:47:58;19.10;99.90
12688;DHT22;6408;59.388;17.798;2023-07-31T10:50:28;19.10;99.90
12688;DHT22;6408;59.388;17.798;2023-07-31T10:52:57;18.80;99.90
12688;DHT22;6408;59.388;17.798;2023-07-31T10:55:43;18.70;99.90
12688;DHT22;6408;59.388;17.798;2023-07-31T10:58:12;18.60;99.90
12688;DHT22;6408;59.388;17.798;2023-07-31T11:00:40;18.70;99.90
12688;DHT22;6408;59.388;17.798;2023-07-31T11:03:09;18.70;99.90
12688;DHT22;6408;59.388;17.798;2023-07-31T11:06:01;18.70;99.90
12688;DHT22;6408;59.388;17.798;2023-07-31T11:08:30;18.70;99.90
12688;DHT22;6408;59.388;17.798;2023-07-31T11:11:10;18.60;99.90
12688;DHT22;6408;59.388;17.798;2023-07-31T11:13:44;18.60;99.90
12688;DHT22;6408;59.388;17.798;2023-07-31T11:16:13;18.50;99.90
12688;DHT22;6408;59.388;17.798;2023-07-31T11:18:43;18.60;99.90
12688;DHT22;6408;59.388;17.798;2023-07-31T11:21:15;18.60;99.90
12688;DHT22;6408;59.388;17.798;2023-07-31T11:23:46;18.60;99.90
12688;DHT22;6408;59.388;17.798;2023-07-31T11:26:16;18.60;99.90
12688;DHT22;6408;59.388;17.798;2023-07-31T11:28:48;18.50;99.90
12688;DHT22;6408;59.388;17.798;2023-07-31T11:31:16;18.50;99.90
12688;DHT22;6408;59.388;17.798;2023-07-31T11:33:46;18.50;99.90
12688;DHT22;6408;59.388;17.798;2023-07-31T11:36:17;18.50;99.90
12688;DHT22;6408;59.388;17.798;2023-07-31T11:38:45;18.50;99.90
12688;DHT22;6408;59.388;17.798;2023-07-31T11:41:16;18.50;99.90
12688;DHT22;6408;59.388;17.798;2023-07-31T11:43:44;18.50;99.90
12688;DHT22;6408;59.388;17.798;2023-07-31T11:46:13;18.40;99.90
12688;DHT22;6408;59.388;17.798;2023-07-31T11:48:41;18.30;99.90
12688;DHT22;6408;59.388;17.798;2023-07-31T11:51:10;18.40;99.90
12688;DHT22;6408;59.388;17.798;2023-07-31T11:53:42;18.40;99.90
12688;DHT22;6408;59.388;17.798;2023-07-31T11:56:13;18.30;99.90
12688;DHT22;6408;59.388;17.798;2023-07-31T11:58:45;18.30;99.90
12688;DHT22;6408;59.388;17.798;2023-07-31T12:01:14;18.40;99.90
12688;DHT22;6408;59.388;17.798;2023-07-31T12:03:44;18.40;99.90
12688;DHT22;6408;59.388;17.798;2023-07-31T12:06:12;18.30;99.90
12688;DHT22;6408;59.388;17.798;2023-07-31T12:08:39;18.30;99.90
12688;DHT22;6408;59.388;17.798;2023-07-31T12:11:08;18.30;99.90
12688;DHT22;6408;59.388;17.798;2023-07-31T12:13:36;18.20;99.90
12688;DHT22;6408;59.388;17.798;2023-07-31T12:16:10;18.20;99.90
12688;DHT22;6408;59.388;17.798;2023-07-31T12:18:38;18.20;99.90
12688;DHT22;6408;59.388;17.798;2023-07-31T12:21:07;18.20;99.90
12688;DHT22;6408;59.388;17.798;2023-07-31T12:23:37;18.10;99.90
12688;DHT22;6408;59.388;17.798;2023-07-31T12:26:07;18.10;99.90
12688;DHT22;6408;59.388;17.798;2023-07-31T12:28:37;18.10;99.90
12688;DHT22;6408;59.388;17.798;2023-07-31T12:31:05;18.10;99.90
12688;DHT22;6408;59.388;17.798;2023-07-31T12:33:42;18.10;99.90
12688;DHT22;6408;59.388;17.798;2023-07-31T12:36:11;18.10;99.90
12688;DHT22;6408;59.388;17.798;2023-07-31T12:38:39;18.10;99.90
12688;DHT22;6408;59.388;17.798;2023-07-31T12:41:06;18.10;99.90
12688;DHT22;6408;59.388;17.798;2023-07-31T12:43:34;18.00;99.90
12688;DHT22;6408;59.388;17.798;2023-07-31T12:46:01;18.00;99.90
12688;DHT22;6408;59.388;17.798;2023-07-31T12:48:30;18.00;99.90
12688;DHT22;6408;59.388;17.798;2023-07-31T12:51:00;18.00;99.90
12688;DHT22;6408;59.388;17.798;2023-07-31T12:53:30;18.00;99.90
12688;DHT22;6408;59.388;17.798;2023-07-31T12:56:09;17.90;99.90
12688;DHT22;6408;59.388;17.798;2023-07-31T12:58:50;17.90;99.90
12688;DHT22;6408;59.388;17.798;2023-07-31T13:01:20;18.00;99.90
12688;DHT22;6408;59.388;17.798;2023-07-31T13:03:48;18.00;99.90
12688;DHT22;6408;59.388;17.798;2023-07-31T13:06:18;18.00;99.90
12688;DHT22;6408;59.388;17.798;2023-07-31T13:08:45;18.10;99.90
12688;DHT22;6408;59.388;17.798;2023-07-31T13:11:12;18.10;99.90
12688;DHT22;6408;59.388;17.798;2023-07-31T13:13:40;18.10;99.90
12688;DHT22;6408;59.388;17.798;2023-07-31T13:16:07;18.00;99.90
12688;DHT22;6408;59.388;17.798;2023-07-31T13:18:34;17.90;99.90
12688;DHT22;6408;59.388;17.798;2023-07-31T13:21:01;17.90;99.90
12688;DHT22;6408;59.388;17.798;2023-07-31T13:23:30;18.00;99.90
12688;DHT22;6408;59.388;17.798;2023-07-31T13:25:59;18.00;99.90
12688;DHT22;6408;59.388;17.798;2023-07-31T13:28:28;18.10;99.90
12688;DHT22;6408;59.388;17.798;2023-07-31T13:30:55;18.20;99.90
12688;DHT22;6408;59.388;17.798;2023-07-31T13:33:22;18.20;99.90
12688;DHT22;6408;59.388;17.798;2023-07-31T13:35:49;18.10;99.90
12688;DHT22;6408;59.388;17.798;2023-07-31T13:38:16;18.10;99.90
12688;DHT22;6408;59.388;17.798;2023-07-31T13:40:45;18.10;99.90
12688;DHT22;6408;59.388;17.798;2023-07-31T13:43:12;18.10;99.90
12688;DHT22;6408;59.388;17.798;2023-07-31T13:45:42;18.00;99.90
12688;DHT22;6408;59.388;17.798;2023-07-31T13:48:09;18.00;99.90
12688;DHT22;6408;59.388;17.798;2023-07-31T13:50:37;18.00;99.90
12688;DHT22;6408;59.388;17.798;2023-07-31T13:53:05;17.90;99.90
12688;DHT22;6408;59.388;17.798;2023-07-31T13:55:32;17.90;99.90
12688;DHT22;6408;59.388;17.798;2023-07-31T13:58:00;17.90;99.90
12688;DHT22;6408;59.388;17.798;2023-07-31T14:00:27;17.80;99.90
12688;DHT22;6408;59.388;17.798;2023-07-31T14:02:56;17.70;99.90
12688;DHT22;6408;59.388;17.798;2023-07-31T14:05:23;17.70;99.90
12688;DHT22;6408;59.388;17.798;2023-07-31T14:07:50;17.70;99.90
12688;DHT22;6408;59.388;17.798;2023-07-31T14:10:17;17.70;99.90
12688;DHT22;6408;59.388;17.798;2023-07-31T14:12:44;17.70;99.90
12688;DHT22;6408;59.388;17.798;2023-07-31T14:15:13;17.70;99.90
12688;DHT22;6408;59.388;17.798;2023-07-31T14:17:40;17.70;99.90
12688;DHT22;6408;59.388;17.798;2023-07-31T14:20:08;17.70;99.90
12688;DHT22;6408;59.388;17.798;2023-07-31T14:22:35;17.70;99.90
12688;DHT22;6408;59.388;17.798;2023-07-31T14:25:03;17.70;99.90
12688;DHT22;6408;59.388;17.798;2023-07-31T14:27:31;17.70;99.90
12688;DHT22;6408;59.388;17.798;2023-07-31T14:30:00;17.70;99.90
12688;DHT22;6408;59.388;17.798;2023-07-31T14:32:28;17.70;99.90
12688;DHT22;6408;59.388;17.798;2023-07-31T14:34:55;17.70;99.90
12688;DHT22;6408;59.388;17.798;2023-07-31T14:37:25;17.70;99.90
12688;DHT22;6408;59.388;17.798;2023-07-31T14:39:52;17.70;99.90
12688;DHT22;6408;59.388;17.798;2023-07-31T14:42:19;17.70;99.90
12688;DHT22;6408;59.388;17.798;2023-07-31T14:44:46;17.70;99.90
12688;DHT22;6408;59.388;17.798;2023-07-31T14:47:13;17.70;99.90
12688;DHT22;6408;59.388;17.798;2023-07-31T14:49:42;17.70;99.90
12688;DHT22;6408;59.388;17.798;2023-07-31T14:52:10;17.70;99.90
12688;DHT22;6408;59.388;17.798;2023-07-31T14:54:37;17.70;99.90
12688;DHT22;6408;59.388;17.798;2023-07-31T14:57:04;17.60;99.90
12688;DHT22;6408;59.388;17.798;2023-07-31T14:59:32;17.60;99.90
12688;DHT22;6408;59.388;17.798;2023-07-31T15:01:59;17.60;99.90
12688;DHT22;6408;59.388;17.798;2023-07-31T15:04:27;17.50;99.90
12688;DHT22;6408;59.388;17.798;2023-07-31T15:06:56;17.50;99.90
12688;DHT22;6408;59.388;17.798;2023-07-31T15:09:24;17.50;99.90
12688;DHT22;6408;59.388;17.798;2023-07-31T15:11:51;17.50;99.90
12688;DHT22;6408;59.388;17.798;2023-07-31T15:14:18;17.40;99.90
12688;DHT22;6408;59.388;17.798;2023-07-31T15:16:45;17.30;99.90
12688;DHT22;6408;59.388;17.798;2023-07-31T15:19:12;17.20;99.90
12688;DHT22;6408;59.388;17.798;2023-07-31T15:21:39;17.30;99.90
12688;DHT22;6408;59.388;17.798;2023-07-31T15:24:08;17.30;99.90
12688;DHT22;6408;59.388;17.798;2023-07-31T15:26:37;17.20;99.90
12688;DHT22;6408;59.388;17.798;2023-07-31T15:29:05;17.20;99.90
12688;DHT22;6408;59.388;17.798;2023-07-31T15:31:34;17.20;99.90
12688;DHT22;6408;59.388;17.798;2023-07-31T15:34:01;17.20;99.90
12688;DHT22;6408;59.388;17.798;2023-07-31T15:36:28;17.20;99.90
12688;DHT22;6408;59.388;17.798;2023-07-31T15:38:56;17.10;99.90
12688;DHT22;6408;59.388;17.798;2023-07-31T15:41:23;17.10;99.90
12688;DHT22;6408;59.388;17.798;2023-07-31T15:43:52;17.10;99.90
12688;DHT22;6408;59.388;17.798;2023-07-31T15:46:19;17.20;99.90
12688;DHT22;6408;59.388;17.798;2023-07-31T15:48:46;17.30;99.90
12688;DHT22;6408;59.388;17.798;2023-07-31T15:51:13;17.20;99.90
12688;DHT22;6408;59.388;17.798;2023-07-31T15:53:40;17.30;99.90
12688;DHT22;6408;59.388;17.798;2023-07-31T15:56:07;17.40;99.90
12688;DHT22;6408;59.388;17.798;2023-07-31T15:58:36;17.50;99.90
12688;DHT22;6408;59.388;17.798;2023-07-31T16:01:03;17.50;99.90
12688;DHT22;6408;59.388;17.798;2023-07-31T16:03:30;17.60;99.90
12688;DHT22;6408;59.388;17.798;2023-07-31T16:05:57;17.60;99.90
12688;DHT22;6408;59.388;17.798;2023-07-31T16:08:24;17.60;99.90
12688;DHT22;6408;59.388;17.798;2023-07-31T16:10:52;17.60;99.90
12688;DHT22;6408;59.388;17.798;2023-07-31T16:13:19;17.60;99.90
12688;DHT22;6408;59.388;17.798;2023-07-31T16:15:47;17.60;99.90
12688;DHT22;6408;59.388;17.798;2023-07-31T16:18:14;17.60;99.90
12688;DHT22;6408;59.388;17.798;2023-07-31T16:20:41;17.60;99.90
12688;DHT22;6408;59.388;17.798;2023-07-31T16:23:08;17.60;99.90
12688;DHT22;6408;59.388;17.798;2023-07-31T16:25:36;17.50;99.90
12688;DHT22;6408;59.388;17.798;2023-07-31T16:28:03;17.50;99.90
12688;DHT22;6408;59.388;17.798;2023-07-31T16:30:30;17.50;99.90
12688;DHT22;6408;59.388;17.798;2023-07-31T16:32:58;17.40;99.90
12688;DHT22;6408;59.388;17.798;2023-07-31T16:35:25;17.40;99.90
12688;DHT22;6408;59.388;17.798;2023-07-31T16:37:52;17.40;99.90
12688;DHT22;6408;59.388;17.798;2023-07-31T16:40:19;17.30;99.90
12688;DHT22;6408;59.388;17.798;2023-07-31T16:42:46;17.30;99.90
12688;DHT22;6408;59.388;17.798;2023-07-31T16:45:13;17.30;99.90
12688;DHT22;6408;59.388;17.798;2023-07-31T16:47:40;17.30;99.90
12688;DHT22;6408;59.388;17.798;2023-07-31T16:50:09;17.20;99.90
12688;DHT22;6408;59.388;17.798;2023-07-31T16:52:36;17.20;99.90
12688;DHT22;6408;59.388;17.798;2023-07-31T16:55:04;17.10;99.90
12688;DHT22;6408;59.388;17.798;2023-07-31T16:57:31;17.10;99.90
12688;DHT22;6408;59.388;17.798;2023-07-31T16:59:58;17.10;99.90
12688;DHT22;6408;59.388;17.798;2023-07-31T17:02:25;17.10;99.90
12688;DHT22;6408;59.388;17.798;2023-07-31T17:04:52;17.00;99.90
12688;DHT22;6408;59.388;17.798;2023-07-31T17:07:21;17.00;99.90
12688;DHT22;6408;59.388;17.798;2023-07-31T17:09:48;17.00;99.90
12688;DHT22;6408;59.388;17.798;2023-07-31T17:12:15;17.00;99.90
12688;DHT22;6408;59.388;17.798;2023-07-31T17:14:43;17.00;99.90
12688;DHT22;6408;59.388;17.798;2023-07-31T17:17:10;16.90;99.90
12688;DHT22;6408;59.388;17.798;2023-07-31T17:19:37;16.90;99.90
12688;DHT22;6408;59.388;17.798;2023-07-31T17:22:04;16.90;99.90
12688;DHT22;6408;59.388;17.798;2023-07-31T17:24:33;16.80;99.90
12688;DHT22;6408;59.388;17.798;2023-07-31T17:27:00;16.80;99.90
12688;DHT22;6408;59.388;17.798;2023-07-31T17:29:28;16.80;99.90
12688;DHT22;6408;59.388;17.798;2023-07-31T17:31:55;16.80;99.90
12688;DHT22;6408;59.388;17.798;2023-07-31T17:34:22;16.80;99.90
12688;DHT22;6408;59.388;17.798;2023-07-31T17:36:49;16.70;99.90
12688;DHT22;6408;59.388;17.798;2023-07-31T17:39:17;16.70;99.90
12688;DHT22;6408;59.388;17.798;2023-07-31T17:41:46;16.70;99.90
12688;DHT22;6408;59.388;17.798;2023-07-31T17:44:13;16.70;99.90
12688;DHT22;6408;59.388;17.798;2023-07-31T17:46:40;16.70;99.90
12688;DHT22;6408;59.388;17.798;2023-07-31T17:49:07;16.60;99.90
12688;DHT22;6408;59.388;17.798;2023-07-31T17:51:35;16.60;99.90
12688;DHT22;6408;59.388;17.798;2023-07-31T17:54:04;16.60;99.90
12688;DHT22;6408;59.388;17.798;2023-07-31T17:56:31;16.50;99.90
12688;DHT22;6408;59.388;17.798;2023-07-31T17:59:04;16.60;99.90
12688;DHT22;6408;59.388;17.798;2023-07-31T18:01:31;16.60;99.90
12688;DHT22;6408;59.388;17.798;2023-07-31T18:03:59;16.60;99.90
12688;DHT22;6408;59.388;17.798;2023-07-31T18:06:25;16.60;99.90
12688;DHT22;6408;59.388;17.798;2023-07-31T18:08:53;16.60;99.90
12688;DHT22;6408;59.388;17.798;2023-07-31T18:11:20;16.50;99.90
12688;DHT22;6408;59.388;17.798;2023-07-31T18:13:52;16.50;99.90
12688;DHT22;6408;59.388;17.798;2023-07-31T18:16:20;16.50;99.90
12688;DHT22;6408;59.388;17.798;2023-07-31T18:18:47;16.50;99.90
12688;DHT22;6408;59.388;17.798;2023-07-31T18:21:20;16.50;99.90
12688;DHT22;6408;59.388;17.798;2023-07-31T18:23:47;16.60;99.90
12688;DHT22;6408;59.388;17.798;2023-07-31T18:26:14;16.50;99.90
12688;DHT22;6408;59.388;17.798;2023-07-31T18:28:41;16.50;99.90
12688;DHT22;6408;59.388;17.798;2023-07-31T18:31:08;16.30;99.90
12688;DHT22;6408;59.388;17.798;2023-07-31T18:33:36;16.30;99.90
12688;DHT22;6408;59.388;17.798;2023-07-31T18:36:04;16.30;99.90
12688;DHT22;6408;59.388;17.798;2023-07-31T18:38:31;16.30;99.90
12688;DHT22;6408;59.388;17.798;2023-07-31T18:40:58;16.30;99.90
12688;DHT22;6408;59.388;17.798;2023-07-31T18:43:25;16.30;99.90
12688;DHT22;6408;59.388;17.798;2023-07-31T18:45:52;16.20;99.90
12688;DHT22;6408;59.388;17.798;2023-07-31T18:48:19;16.20;99.90
12688;DHT22;6408;59.388;17.798;2023-07-31T18:50:48;16.10;99.90
12688;DHT22;6408;59.388;17.798;2023-07-31T18:53:17;16.00;99.90
12688;DHT22;6408;59.388;17.798;2023-07-31T18:55:44;16.00;99.90
12688;DHT22;6408;59.388;17.798;2023-07-31T18:58:11;16.00;99.90
12688;DHT22;6408;59.388;17.798;2023-07-31T19:00:38;16.00;99.90
12688;DHT22;6408;59.388;17.798;2023-07-31T19:03:05;16.00;99.90
12688;DHT22;6408;59.388;17.798;2023-07-31T19:05:33;16.00;99.90
12688;DHT22;6408;59.388;17.798;2023-07-31T19:08:01;16.00;99.90
12688;DHT22;6408;59.388;17.798;2023-07-31T19:10:30;16.10;99.90
12688;DHT22;6408;59.388;17.798;2023-07-31T19:12:57;16.00;99.90
12688;DHT22;6408;59.388;17.798;2023-07-31T19:15:24;16.10;99.90
12688;DHT22;6408;59.388;17.798;2023-07-31T19:17:52;16.00;99.90
12688;DHT22;6408;59.388;17.798;2023-07-31T19:20:22;16.00;99.90
12688;DHT22;6408;59.388;17.798;2023-07-31T19:22:49;16.00;99.90
12688;DHT22;6408;59.388;17.798;2023-07-31T19:25:17;15.90;99.90
12688;DHT22;6408;59.388;17.798;2023-07-31T19:27:45;16.00;99.90
12688;DHT22;6408;59.388;17.798;2023-07-31T19:30:13;15.90;99.90
12688;DHT22;6408;59.388;17.798;2023-07-31T19:32:40;15.90;99.90
12688;DHT22;6408;59.388;17.798;2023-07-31T19:35:08;15.90;99.90
12688;DHT22;6408;59.388;17.798;2023-07-31T19:37:35;15.90;99.90
12688;DHT22;6408;59.388;17.798;2023-07-31T19:40:02;15.90;99.90
12688;DHT22;6408;59.388;17.798;2023-07-31T19:42:31;15.80;99.90
12688;DHT22;6408;59.388;17.798;2023-07-31T19:45:01;15.80;99.90
12688;DHT22;6408;59.388;17.798;2023-07-31T19:47:28;15.80;99.90
12688;DHT22;6408;59.388;17.798;2023-07-31T19:49:55;15.80;99.90
12688;DHT22;6408;59.388;17.798;2023-07-31T19:52:22;15.70;99.90
12688;DHT22;6408;59.388;17.798;2023-07-31T19:54:50;15.80;99.90
12688;DHT22;6408;59.388;17.798;2023-07-31T19:57:17;15.80;99.90
12688;DHT22;6408;59.388;17.798;2023-07-31T19:59:46;15.80;99.90
12688;DHT22;6408;59.388;17.798;2023-07-31T20:02:13;15.80;99.90
12688;DHT22;6408;59.388;17.798;2023-07-31T20:04:40;15.90;99.90
12688;DHT22;6408;59.388;17.798;2023-07-31T20:07:07;15.80;99.90
12688;DHT22;6408;59.388;17.798;2023-07-31T20:09:34;15.70;99.90
12688;DHT22;6408;59.388;17.798;2023-07-31T20:12:01;15.70;99.90
12688;DHT22;6408;59.388;17.798;2023-07-31T20:14:28;15.70;99.90
12688;DHT22;6408;59.388;17.798;2023-07-31T20:16:57;15.70;99.90
12688;DHT22;6408;59.388;17.798;2023-07-31T20:19:24;15.70;99.90
12688;DHT22;6408;59.388;17.798;2023-07-31T20:21:51;15.70;99.90
12688;DHT22;6408;59.388;17.798;2023-07-31T20:24:21;15.60;99.90
12688;DHT22;6408;59.388;17.798;2023-07-31T20:26:48;15.60;99.90
12688;DHT22;6408;59.388;17.798;2023-07-31T20:29:15;15.60;99.90
12688;DHT22;6408;59.388;17.798;2023-07-31T20:31:43;15.60;99.90
12688;DHT22;6408;59.388;17.798;2023-07-31T20:34:11;15.60;99.90
12688;DHT22;6408;59.388;17.798;2023-07-31T20:36:39;15.50;99.90
12688;DHT22;6408;59.388;17.798;2023-07-31T20:39:06;15.60;99.90
12688;DHT22;6408;59.388;17.798;2023-07-31T20:41:33;15.50;99.90
12688;DHT22;6408;59.388;17.798;2023-07-31T20:44:01;15.50;99.90
12688;DHT22;6408;59.388;17.798;2023-07-31T20:46:28;15.50;99.90
12688;DHT22;6408;59.388;17.798;2023-07-31T20:48:56;15.50;99.90
12688;DHT22;6408;59.388;17.798;2023-07-31T20:51:25;15.40;99.90
12688;DHT22;6408;59.388;17.798;2023-07-31T20:53:52;15.40;99.90
12688;DHT22;6408;59.388;17.798;2023-07-31T20:56:19;15.40;99.90
12688;DHT22;6408;59.388;17.798;2023-07-31T20:58:46;15.40;99.90
12688;DHT22;6408;59.388;17.798;2023-07-31T21:01:13;15.30;99.90
12688;DHT22;6408;59.388;17.798;2023-07-31T21:03:40;15.30;99.90
12688;DHT22;6408;59.388;17.798;2023-07-31T21:06:07;15.30;99.90
12688;DHT22;6408;59.388;17.798;2023-07-31T21:08:38;15.30;99.90
12688;DHT22;6408;59.388;17.798;2023-07-31T21:11:05;15.20;99.90
12688;DHT22;6408;59.388;17.798;2023-07-31T21:13:33;15.20;99.90
12688;DHT22;6408;59.388;17.798;2023-07-31T21:16:00;15.10;99.90
12688;DHT22;6408;59.388;17.798;2023-07-31T21:18:27;15.10;99.90
12688;DHT22;6408;59.388;17.798;2023-07-31T21:20:54;15.00;99.90
12688;DHT22;6408;59.388;17.798;2023-07-31T21:23:22;15.00;99.90
12688;DHT22;6408;59.388;17.798;2023-07-31T21:25:52;14.90;99.90
12688;DHT22;6408;59.388;17.798;2023-07-31T21:28:19;14.90;99.90
12688;DHT22;6408;59.388;17.798;2023-07-31T21:30:46;14.90;99.90
12688;DHT22;6408;59.388;17.798;2023-07-31T21:33:13;14.80;99.90
12688;DHT22;6408;59.388;17.798;2023-07-31T21:35:40;14.80;99.90
12688;DHT22;6408;59.388;17.798;2023-07-31T21:38:07;14.80;99.90
12688;DHT22;6408;59.388;17.798;2023-07-31T21:40:34;14.80;99.90
12688;DHT22;6408;59.388;17.798;2023-07-31T21:43:03;14.80;99.90
12688;DHT22;6408;59.388;17.798;2023-07-31T21:45:30;14.70;99.90
12688;DHT22;6408;59.388;17.798;2023-07-31T21:47:57;14.70;99.90
12688;DHT22;6408;59.388;17.798;2023-07-31T21:50:24;14.60;99.90
12688;DHT22;6408;59.388;17.798;2023-07-31T21:52:51;14.60;99.90
12688;DHT22;6408;59.388;17.798;2023-07-31T21:55:19;14.60;99.90
12688;DHT22;6408;59.388;17.798;2023-07-31T21:57:47;14.60;99.90
12688;DHT22;6408;59.388;17.798;2023-07-31T22:00:16;14.60;99.90